sim
Sign-in with your pilot id or email,
or register
Callsign
Passwort

Schedule Details

Flight Number: RYR5468
Departure: Madrid Barajas Airport (LEMD) at 10:00
Arrival: Fuerteventura Airport (GCFV) at 12:45
Route: Ryanair Passenger Schedule. Enter filed route here before submitting Pirep.

Weather Information
Getting current METAR information for LEMD 160330Z 34003KT CAVOK 02/00 Q1026 NOSIG
Getting current METAR information for GCFV 160330Z AUTO 28005KT 9999 NCD 14/11 Q1017

Schedule Frequency

Route Map